sensor_id;sensor_type;location;lat;lon;timestamp;P1;durP1;ratioP1;P2;durP2;ratioP2
71629;SDS011;59479;51.902;8.212;2022-10-16T00:00:30;6.53;;;2.78;;
71629;SDS011;59479;51.902;8.212;2022-10-16T00:02:56;7.72;;;2.20;;
71629;SDS011;59479;51.902;8.212;2022-10-16T00:05:21;7.22;;;2.83;;
71629;SDS011;59479;51.902;8.212;2022-10-16T00:07:46;5.43;;;2.57;;
71629;SDS011;59479;51.902;8.212;2022-10-16T00:10:12;6.80;;;2.80;;
71629;SDS011;59479;51.902;8.212;2022-10-16T00:12:37;5.00;;;2.43;;
71629;SDS011;59479;51.902;8.212;2022-10-16T00:15:02;5.23;;;2.53;;
71629;SDS011;59479;51.902;8.212;2022-10-16T00:17:30;6.97;;;2.20;;
71629;SDS011;59479;51.902;8.212;2022-10-16T00:19:55;5.05;;;2.50;;
71629;SDS011;59479;51.902;8.212;2022-10-16T00:22:21;4.72;;;2.40;;
71629;SDS011;59479;51.902;8.212;2022-10-16T00:24:47;5.80;;;2.13;;
71629;SDS011;59479;51.902;8.212;2022-10-16T00:27:12;5.97;;;2.60;;
71629;SDS011;59479;51.902;8.212;2022-10-16T00:29:37;5.60;;;2.50;;
71629;SDS011;59479;51.902;8.212;2022-10-16T00:32:03;6.23;;;2.43;;
71629;SDS011;59479;51.902;8.212;2022-10-16T00:34:28;6.77;;;2.70;;
71629;SDS011;59479;51.902;8.212;2022-10-16T00:36:54;5.83;;;2.50;;
71629;SDS011;59479;51.902;8.212;2022-10-16T00:39:19;5.30;;;2.20;;
71629;SDS011;59479;51.902;8.212;2022-10-16T00:41:44;5.30;;;2.37;;
71629;SDS011;59479;51.902;8.212;2022-10-16T00:47:12;9.07;;;2.55;;
71629;SDS011;59479;51.902;8.212;2022-10-16T00:49:42;6.10;;;2.70;;
71629;SDS011;59479;51.902;8.212;2022-10-16T00:52:08;4.70;;;2.23;;
71629;SDS011;59479;51.902;8.212;2022-10-16T00:54:35;7.40;;;2.60;;
71629;SDS011;59479;51.902;8.212;2022-10-16T00:57:01;4.83;;;2.40;;
71629;SDS011;59479;51.902;8.212;2022-10-16T00:59:33;7.70;;;2.47;;
71629;SDS011;59479;51.902;8.212;2022-10-16T01:02:01;5.32;;;2.25;;
71629;SDS011;59479;51.902;8.212;2022-10-16T01:04:29;5.18;;;2.30;;
71629;SDS011;59479;51.902;8.212;2022-10-16T01:17:43;5.00;;;2.30;;
71629;SDS011;59479;51.902;8.212;2022-10-16T01:28:17;5.32;;;2.30;;
71629;SDS011;59479;51.902;8.212;2022-10-16T01:30:46;5.68;;;2.28;;
71629;SDS011;59479;51.902;8.212;2022-10-16T01:33:14;5.30;;;2.17;;
71629;SDS011;59479;51.902;8.212;2022-10-16T01:35:54;9.13;;;2.60;;
71629;SDS011;59479;51.902;8.212;2022-10-16T01:40:58;6.10;;;2.38;;
71629;SDS011;59479;51.902;8.212;2022-10-16T01:43:28;5.40;;;2.58;;
71629;SDS011;59479;51.902;8.212;2022-10-16T01:45:58;6.47;;;2.78;;
71629;SDS011;59479;51.902;8.212;2022-10-16T01:48:25;6.63;;;2.55;;
71629;SDS011;59479;51.902;8.212;2022-10-16T01:50:54;4.77;;;2.73;;
71629;SDS011;59479;51.902;8.212;2022-10-16T01:53:24;5.40;;;2.20;;
71629;SDS011;59479;51.902;8.212;2022-10-16T01:55:51;6.05;;;2.42;;
71629;SDS011;59479;51.902;8.212;2022-10-16T01:58:19;4.93;;;2.40;;
71629;SDS011;59479;51.902;8.212;2022-10-16T02:00:45;6.47;;;2.53;;
71629;SDS011;59479;51.902;8.212;2022-10-16T02:03:12;5.07;;;2.60;;
71629;SDS011;59479;51.902;8.212;2022-10-16T02:06:01;5.45;;;3.08;;
71629;SDS011;59479;51.902;8.212;2022-10-16T02:08:28;5.43;;;2.65;;
71629;SDS011;59479;51.902;8.212;2022-10-16T02:10:56;7.72;;;2.70;;
71629;SDS011;59479;51.902;8.212;2022-10-16T02:13:33;5.57;;;2.70;;
71629;SDS011;59479;51.902;8.212;2022-10-16T02:16:01;4.90;;;2.30;;
71629;SDS011;59479;51.902;8.212;2022-10-16T02:18:26;4.68;;;2.60;;
71629;SDS011;59479;51.902;8.212;2022-10-16T02:23:24;7.18;;;2.70;;
71629;SDS011;59479;51.902;8.212;2022-10-16T02:25:57;6.70;;;2.72;;
71629;SDS011;59479;51.902;8.212;2022-10-16T02:28:25;7.20;;;2.80;;
71629;SDS011;59479;51.902;8.212;2022-10-16T02:30:58;4.50;;;2.75;;
71629;SDS011;59479;51.902;8.212;2022-10-16T02:33:27;5.97;;;2.47;;
71629;SDS011;59479;51.902;8.212;2022-10-16T02:35:54;8.68;;;2.58;;
71629;SDS011;59479;51.902;8.212;2022-10-16T02:38:20;7.38;;;2.72;;
71629;SDS011;59479;51.902;8.212;2022-10-16T02:40:46;6.15;;;2.65;;
71629;SDS011;59479;51.902;8.212;2022-10-16T02:43:12;5.53;;;2.80;;
71629;SDS011;59479;51.902;8.212;2022-10-16T02:45:38;5.80;;;2.37;;
71629;SDS011;59479;51.902;8.212;2022-10-16T02:48:03;4.50;;;2.45;;
71629;SDS011;59479;51.902;8.212;2022-10-16T02:50:28;5.10;;;2.20;;
71629;SDS011;59479;51.902;8.212;2022-10-16T02:52:54;7.30;;;2.30;;
71629;SDS011;59479;51.902;8.212;2022-10-16T02:55:19;5.40;;;2.47;;
71629;SDS011;59479;51.902;8.212;2022-10-16T02:57:44;6.33;;;2.60;;
71629;SDS011;59479;51.902;8.212;2022-10-16T03:00:11;5.23;;;2.30;;
71629;SDS011;59479;51.902;8.212;2022-10-16T03:02:38;4.68;;;2.00;;
71629;SDS011;59479;51.902;8.212;2022-10-16T03:05:04;5.03;;;1.97;;
71629;SDS011;59479;51.902;8.212;2022-10-16T03:07:29;4.70;;;2.95;;
71629;SDS011;59479;51.902;8.212;2022-10-16T03:09:55;4.73;;;2.07;;
71629;SDS011;59479;51.902;8.212;2022-10-16T03:12:20;6.63;;;2.00;;
71629;SDS011;59479;51.902;8.212;2022-10-16T03:14:46;4.55;;;1.98;;
71629;SDS011;59479;51.902;8.212;2022-10-16T03:17:11;5.50;;;2.23;;
71629;SDS011;59479;51.902;8.212;2022-10-16T03:19:38;4.70;;;2.22;;
71629;SDS011;59479;51.902;8.212;2022-10-16T03:22:03;6.03;;;2.17;;
71629;SDS011;59479;51.902;8.212;2022-10-16T03:24:28;6.97;;;2.20;;
71629;SDS011;59479;51.902;8.212;2022-10-16T03:26:54;7.07;;;2.07;;
71629;SDS011;59479;51.902;8.212;2022-10-16T03:29:19;4.63;;;2.10;;
71629;SDS011;59479;51.902;8.212;2022-10-16T03:31:44;4.90;;;2.27;;
71629;SDS011;59479;51.902;8.212;2022-10-16T03:34:10;4.00;;;2.15;;
71629;SDS011;59479;51.902;8.212;2022-10-16T03:36:35;6.60;;;2.00;;
71629;SDS011;59479;51.902;8.212;2022-10-16T03:39:03;3.93;;;2.20;;
71629;SDS011;59479;51.902;8.212;2022-10-16T03:41:28;5.05;;;2.15;;
71629;SDS011;59479;51.902;8.212;2022-10-16T03:43:53;6.43;;;1.70;;
71629;SDS011;59479;51.902;8.212;2022-10-16T03:46:19;5.27;;;2.13;;
71629;SDS011;59479;51.902;8.212;2022-10-16T03:48:44;5.90;;;1.90;;
71629;SDS011;59479;51.902;8.212;2022-10-16T03:51:09;4.97;;;1.80;;
71629;SDS011;59479;51.902;8.212;2022-10-16T03:53:35;4.13;;;2.10;;
71629;SDS011;59479;51.902;8.212;2022-10-16T03:56:00;4.97;;;2.20;;
71629;SDS011;59479;51.902;8.212;2022-10-16T03:58:25;3.83;;;1.70;;
71629;SDS011;59479;51.902;8.212;2022-10-16T04:00:51;3.55;;;1.80;;
71629;SDS011;59479;51.902;8.212;2022-10-16T04:03:16;6.00;;;2.15;;
71629;SDS011;59479;51.902;8.212;2022-10-16T04:05:42;3.60;;;1.70;;
71629;SDS011;59479;51.902;8.212;2022-10-16T04:08:07;5.90;;;1.90;;
71629;SDS011;59479;51.902;8.212;2022-10-16T04:10:33;5.93;;;1.92;;
71629;SDS011;59479;51.902;8.212;2022-10-16T04:12:58;3.90;;;1.80;;
71629;SDS011;59479;51.902;8.212;2022-10-16T04:15:24;3.77;;;1.90;;
71629;SDS011;59479;51.902;8.212;2022-10-16T04:17:49;4.68;;;2.00;;
71629;SDS011;59479;51.902;8.212;2022-10-16T04:20:15;4.10;;;1.90;;
71629;SDS011;59479;51.902;8.212;2022-10-16T04:22:41;4.63;;;1.52;;
71629;SDS011;59479;51.902;8.212;2022-10-16T04:25:06;3.30;;;1.70;;
71629;SDS011;59479;51.902;8.212;2022-10-16T04:27:32;3.60;;;1.77;;
71629;SDS011;59479;51.902;8.212;2022-10-16T04:29:58;4.07;;;1.65;;
71629;SDS011;59479;51.902;8.212;2022-10-16T04:32:24;3.35;;;1.83;;
71629;SDS011;59479;51.902;8.212;2022-10-16T04:34:49;4.80;;;1.67;;
71629;SDS011;59479;51.902;8.212;2022-10-16T04:37:15;3.80;;;1.60;;
71629;SDS011;59479;51.902;8.212;2022-10-16T04:39:40;5.63;;;1.37;;
71629;SDS011;59479;51.902;8.212;2022-10-16T04:42:05;4.60;;;1.87;;
71629;SDS011;59479;51.902;8.212;2022-10-16T04:44:31;4.50;;;1.70;;
71629;SDS011;59479;51.902;8.212;2022-10-16T04:46:56;3.30;;;1.67;;
71629;SDS011;59479;51.902;8.212;2022-10-16T04:49:21;4.07;;;1.60;;
71629;SDS011;59479;51.902;8.212;2022-10-16T04:51:47;5.83;;;2.17;;
71629;SDS011;59479;51.902;8.212;2022-10-16T04:54:12;3.67;;;1.60;;
71629;SDS011;59479;51.902;8.212;2022-10-16T04:56:37;4.47;;;1.80;;
71629;SDS011;59479;51.902;8.212;2022-10-16T04:59:11;3.92;;;1.67;;
71629;SDS011;59479;51.902;8.212;2022-10-16T05:01:36;5.53;;;1.70;;
71629;SDS011;59479;51.902;8.212;2022-10-16T05:04:01;3.50;;;1.50;;
71629;SDS011;59479;51.902;8.212;2022-10-16T05:06:27;6.70;;;2.47;;
71629;SDS011;59479;51.902;8.212;2022-10-16T05:08:52;3.67;;;1.70;;
71629;SDS011;59479;51.902;8.212;2022-10-16T05:11:17;3.30;;;1.93;;
71629;SDS011;59479;51.902;8.212;2022-10-16T05:13:43;3.63;;;1.50;;
71629;SDS011;59479;51.902;8.212;2022-10-16T05:16:08;3.30;;;1.53;;
71629;SDS011;59479;51.902;8.212;2022-10-16T05:18:33;3.53;;;1.50;;
71629;SDS011;59479;51.902;8.212;2022-10-16T05:20:59;3.78;;;1.83;;
71629;SDS011;59479;51.902;8.212;2022-10-16T05:23:24;3.10;;;1.40;;
71629;SDS011;59479;51.902;8.212;2022-10-16T05:25:55;3.20;;;1.37;;
71629;SDS011;59479;51.902;8.212;2022-10-16T05:28:23;3.30;;;1.40;;
71629;SDS011;59479;51.902;8.212;2022-10-16T05:30:55;5.07;;;1.83;;
71629;SDS011;59479;51.902;8.212;2022-10-16T05:33:21;3.40;;;1.40;;
71629;SDS011;59479;51.902;8.212;2022-10-16T05:35:47;3.78;;;1.60;;
71629;SDS011;59479;51.902;8.212;2022-10-16T05:38:12;5.40;;;1.97;;
71629;SDS011;59479;51.902;8.212;2022-10-16T05:40:38;4.53;;;1.73;;
71629;SDS011;59479;51.902;8.212;2022-10-16T05:43:03;4.37;;;1.67;;
71629;SDS011;59479;51.902;8.212;2022-10-16T05:45:29;4.57;;;1.73;;
71629;SDS011;59479;51.902;8.212;2022-10-16T05:47:54;4.72;;;1.70;;
71629;SDS011;59479;51.902;8.212;2022-10-16T05:50:19;4.27;;;1.63;;
71629;SDS011;59479;51.902;8.212;2022-10-16T05:52:45;3.73;;;1.90;;
71629;SDS011;59479;51.902;8.212;2022-10-16T05:55:10;5.03;;;1.60;;
71629;SDS011;59479;51.902;8.212;2022-10-16T05:57:35;4.17;;;2.00;;
71629;SDS011;59479;51.902;8.212;2022-10-16T06:00:00;3.93;;;1.60;;
71629;SDS011;59479;51.902;8.212;2022-10-16T06:02:26;4.00;;;1.60;;
71629;SDS011;59479;51.902;8.212;2022-10-16T06:04:52;3.60;;;1.88;;
71629;SDS011;59479;51.902;8.212;2022-10-16T06:07:18;3.40;;;1.60;;
71629;SDS011;59479;51.902;8.212;2022-10-16T06:09:44;3.13;;;1.50;;
71629;SDS011;59479;51.902;8.212;2022-10-16T06:12:13;3.22;;;1.80;;
71629;SDS011;59479;51.902;8.212;2022-10-16T06:14:38;6.53;;;1.73;;
71629;SDS011;59479;51.902;8.212;2022-10-16T06:17:04;4.97;;;1.73;;
71629;SDS011;59479;51.902;8.212;2022-10-16T06:19:29;4.10;;;1.70;;
71629;SDS011;59479;51.902;8.212;2022-10-16T06:21:54;3.00;;;1.50;;
71629;SDS011;59479;51.902;8.212;2022-10-16T06:24:20;3.63;;;1.70;;
71629;SDS011;59479;51.902;8.212;2022-10-16T06:26:45;6.40;;;1.93;;
71629;SDS011;59479;51.902;8.212;2022-10-16T06:29:10;3.20;;;1.70;;
71629;SDS011;59479;51.902;8.212;2022-10-16T06:31:36;3.37;;;1.40;;
71629;SDS011;59479;51.902;8.212;2022-10-16T06:34:01;4.03;;;1.70;;
71629;SDS011;59479;51.902;8.212;2022-10-16T06:36:27;3.07;;;1.70;;
71629;SDS011;59479;51.902;8.212;2022-10-16T06:38:53;3.45;;;1.55;;
71629;SDS011;59479;51.902;8.212;2022-10-16T06:41:19;3.70;;;2.00;;
71629;SDS011;59479;51.902;8.212;2022-10-16T06:43:46;4.45;;;1.75;;
71629;SDS011;59479;51.902;8.212;2022-10-16T06:46:12;3.92;;;1.67;;
71629;SDS011;59479;51.902;8.212;2022-10-16T06:48:38;5.82;;;1.70;;
71629;SDS011;59479;51.902;8.212;2022-10-16T06:51:05;6.50;;;1.80;;
71629;SDS011;59479;51.902;8.212;2022-10-16T06:53:34;4.03;;;1.52;;
71629;SDS011;59479;51.902;8.212;2022-10-16T06:56:11;3.03;;;1.35;;
71629;SDS011;59479;51.902;8.212;2022-10-16T06:58:42;4.70;;;1.30;;
71629;SDS011;59479;51.902;8.212;2022-10-16T07:01:08;4.88;;;1.70;;
71629;SDS011;59479;51.902;8.212;2022-10-16T07:03:35;4.13;;;1.60;;
71629;SDS011;59479;51.902;8.212;2022-10-16T07:06:03;4.32;;;1.40;;
71629;SDS011;59479;51.902;8.212;2022-10-16T07:08:32;3.20;;;1.58;;
71629;SDS011;59479;51.902;8.212;2022-10-16T07:10:59;3.42;;;1.30;;
71629;SDS011;59479;51.902;8.212;2022-10-16T07:13:25;3.55;;;1.48;;
71629;SDS011;59479;51.902;8.212;2022-10-16T07:15:50;3.10;;;1.30;;
71629;SDS011;59479;51.902;8.212;2022-10-16T07:18:16;4.67;;;1.53;;
71629;SDS011;59479;51.902;8.212;2022-10-16T07:20:41;2.87;;;1.57;;
71629;SDS011;59479;51.902;8.212;2022-10-16T07:23:06;6.27;;;1.40;;
71629;SDS011;59479;51.902;8.212;2022-10-16T07:25:32;4.80;;;2.30;;
71629;SDS011;59479;51.902;8.212;2022-10-16T07:27:57;3.53;;;1.80;;
71629;SDS011;59479;51.902;8.212;2022-10-16T07:30:22;2.95;;;1.30;;
71629;SDS011;59479;51.902;8.212;2022-10-16T07:32:48;4.50;;;1.40;;
71629;SDS011;59479;51.902;8.212;2022-10-16T07:35:13;3.50;;;1.80;;
71629;SDS011;59479;51.902;8.212;2022-10-16T07:37:39;2.90;;;1.33;;
71629;SDS011;59479;51.902;8.212;2022-10-16T07:40:04;3.13;;;1.70;;
71629;SDS011;59479;51.902;8.212;2022-10-16T07:42:30;3.75;;;1.40;;
71629;SDS011;59479;51.902;8.212;2022-10-16T07:44:55;3.17;;;1.47;;
71629;SDS011;59479;51.902;8.212;2022-10-16T07:47:21;3.60;;;1.57;;
71629;SDS011;59479;51.902;8.212;2022-10-16T07:49:46;3.20;;;1.43;;
71629;SDS011;59479;51.902;8.212;2022-10-16T07:52:11;4.97;;;1.90;;
71629;SDS011;59479;51.902;8.212;2022-10-16T07:54:37;4.82;;;1.55;;
71629;SDS011;59479;51.902;8.212;2022-10-16T07:57:02;3.23;;;1.70;;
71629;SDS011;59479;51.902;8.212;2022-10-16T07:59:27;3.60;;;1.43;;
71629;SDS011;59479;51.902;8.212;2022-10-16T08:01:53;3.20;;;1.53;;
71629;SDS011;59479;51.902;8.212;2022-10-16T08:04:18;3.00;;;1.73;;
71629;SDS011;59479;51.902;8.212;2022-10-16T08:06:43;2.87;;;1.40;;
71629;SDS011;59479;51.902;8.212;2022-10-16T08:09:09;3.13;;;1.60;;
71629;SDS011;59479;51.902;8.212;2022-10-16T08:11:34;3.40;;;1.50;;
71629;SDS011;59479;51.902;8.212;2022-10-16T08:14:00;5.37;;;1.80;;
71629;SDS011;59479;51.902;8.212;2022-10-16T08:16:25;4.80;;;1.77;;
71629;SDS011;59479;51.902;8.212;2022-10-16T08:18:50;3.37;;;1.93;;
71629;SDS011;59479;51.902;8.212;2022-10-16T08:21:17;5.93;;;1.50;;
71629;SDS011;59479;51.902;8.212;2022-10-16T08:23:44;5.43;;;1.70;;
71629;SDS011;59479;51.902;8.212;2022-10-16T08:26:10;3.00;;;1.25;;
71629;SDS011;59479;51.902;8.212;2022-10-16T08:28:35;4.38;;;1.73;;
71629;SDS011;59479;51.902;8.212;2022-10-16T08:31:05;3.77;;;1.23;;
71629;SDS011;59479;51.902;8.212;2022-10-16T08:33:36;4.47;;;1.52;;
71629;SDS011;59479;51.902;8.212;2022-10-16T08:36:02;3.85;;;1.48;;
71629;SDS011;59479;51.902;8.212;2022-10-16T08:38:29;3.43;;;1.70;;
71629;SDS011;59479;51.902;8.212;2022-10-16T08:40:56;3.90;;;1.40;;
71629;SDS011;59479;51.902;8.212;2022-10-16T08:43:41;4.00;;;1.83;;
71629;SDS011;59479;51.902;8.212;2022-10-16T08:47:01;4.22;;;1.38;;
71629;SDS011;59479;51.902;8.212;2022-10-16T08:49:07;4.18;;;1.92;;
71629;SDS011;59479;51.902;8.212;2022-10-16T08:51:38;6.18;;;1.70;;
71629;SDS011;59479;51.902;8.212;2022-10-16T08:54:37;4.40;;;1.60;;
71629;SDS011;59479;51.902;8.212;2022-10-16T08:57:09;3.67;;;1.40;;
71629;SDS011;59479;51.902;8.212;2022-10-16T08:59:36;3.70;;;1.42;;
71629;SDS011;59479;51.902;8.212;2022-10-16T09:02:02;4.50;;;1.57;;
71629;SDS011;59479;51.902;8.212;2022-10-16T09:13:18;3.10;;;1.35;;
71629;SDS011;59479;51.902;8.212;2022-10-16T09:18:35;5.43;;;1.50;;
71629;SDS011;59479;51.902;8.212;2022-10-16T09:21:09;3.67;;;1.58;;
71629;SDS011;59479;51.902;8.212;2022-10-16T09:24:09;5.70;;;1.80;;
71629;SDS011;59479;51.902;8.212;2022-10-16T09:26:38;3.22;;;1.30;;
71629;SDS011;59479;51.902;8.212;2022-10-16T09:29:03;5.70;;;1.83;;
71629;SDS011;59479;51.902;8.212;2022-10-16T09:31:28;3.23;;;1.40;;
71629;SDS011;59479;51.902;8.212;2022-10-16T09:34:00;4.18;;;1.45;;
71629;SDS011;59479;51.902;8.212;2022-10-16T09:36:34;4.22;;;1.30;;
71629;SDS011;59479;51.902;8.212;2022-10-16T09:39:07;5.40;;;1.48;;
71629;SDS011;59479;51.902;8.212;2022-10-16T09:41:34;4.88;;;1.63;;
71629;SDS011;59479;51.902;8.212;2022-10-16T09:44:03;5.15;;;1.27;;
71629;SDS011;59479;51.902;8.212;2022-10-16T09:46:31;3.17;;;1.33;;
71629;SDS011;59479;51.902;8.212;2022-10-16T09:48:59;3.80;;;1.17;;
71629;SDS011;59479;51.902;8.212;2022-10-16T09:51:37;4.25;;;1.13;;
71629;SDS011;59479;51.902;8.212;2022-10-16T09:56:34;3.45;;;1.48;;
71629;SDS011;59479;51.902;8.212;2022-10-16T09:59:19;3.42;;;1.30;;
71629;SDS011;59479;51.902;8.212;2022-10-16T10:01:49;4.07;;;1.30;;
71629;SDS011;59479;51.902;8.212;2022-10-16T10:04:17;3.33;;;1.13;;
71629;SDS011;59479;51.902;8.212;2022-10-16T10:06:51;6.47;;;1.50;;
71629;SDS011;59479;51.902;8.212;2022-10-16T10:09:29;4.32;;;1.08;;
71629;SDS011;59479;51.902;8.212;2022-10-16T10:12:02;4.53;;;1.52;;
71629;SDS011;59479;51.902;8.212;2022-10-16T10:14:39;4.18;;;1.35;;
71629;SDS011;59479;51.902;8.212;2022-10-16T10:22:19;3.85;;;1.45;;
71629;SDS011;59479;51.902;8.212;2022-10-16T10:30:24;4.00;;;1.20;;
71629;SDS011;59479;51.902;8.212;2022-10-16T10:46:57;5.90;;;1.27;;
71629;SDS011;59479;51.902;8.212;2022-10-16T10:55:03;3.75;;;1.60;;
71629;SDS011;59479;51.902;8.212;2022-10-16T11:08:18;3.20;;;1.45;;
71629;SDS011;59479;51.902;8.212;2022-10-16T11:10:54;3.95;;;1.30;;
71629;SDS011;59479;51.902;8.212;2022-10-16T11:13:38;4.53;;;1.20;;
71629;SDS011;59479;51.902;8.212;2022-10-16T11:16:22;4.80;;;1.40;;
71629;SDS011;59479;51.902;8.212;2022-10-16T11:19:22;4.95;;;1.40;;
71629;SDS011;59479;51.902;8.212;2022-10-16T11:22:08;3.55;;;1.35;;
71629;SDS011;59479;51.902;8.212;2022-10-16T11:24:47;3.90;;;1.20;;
71629;SDS011;59479;51.902;8.212;2022-10-16T11:27:34;3.80;;;1.60;;
71629;SDS011;59479;51.902;8.212;2022-10-16T11:30:03;5.38;;;1.30;;
71629;SDS011;59479;51.902;8.212;2022-10-16T11:35:17;4.78;;;1.35;;
71629;SDS011;59479;51.902;8.212;2022-10-16T11:37:48;4.40;;;1.30;;
71629;SDS011;59479;51.902;8.212;2022-10-16T11:42:50;3.35;;;1.42;;
71629;SDS011;59479;51.902;8.212;2022-10-16T11:45:36;3.63;;;1.45;;
71629;SDS011;59479;51.902;8.212;2022-10-16T11:55:58;3.25;;;1.17;;
71629;SDS011;59479;51.902;8.212;2022-10-16T11:58:27;3.93;;;1.20;;
71629;SDS011;59479;51.902;8.212;2022-10-16T12:01:05;4.25;;;1.35;;
71629;SDS011;59479;51.902;8.212;2022-10-16T12:06:36;7.15;;;1.75;;
71629;SDS011;59479;51.902;8.212;2022-10-16T12:09:05;5.30;;;1.50;;
71629;SDS011;59479;51.902;8.212;2022-10-16T12:11:40;3.63;;;1.40;;
71629;SDS011;59479;51.902;8.212;2022-10-16T12:16:37;3.20;;;1.38;;
71629;SDS011;59479;51.902;8.212;2022-10-16T12:19:27;4.15;;;1.67;;
71629;SDS011;59479;51.902;8.212;2022-10-16T12:21:57;3.17;;;1.30;;
71629;SDS011;59479;51.902;8.212;2022-10-16T12:24:31;4.50;;;1.80;;
71629;SDS011;59479;51.902;8.212;2022-10-16T12:26:59;3.97;;;1.92;;
71629;SDS011;59479;51.902;8.212;2022-10-16T12:32:02;5.45;;;1.92;;
71629;SDS011;59479;51.902;8.212;2022-10-16T12:37:11;5.38;;;2.13;;
71629;SDS011;59479;51.902;8.212;2022-10-16T12:39:40;5.40;;;1.85;;
71629;SDS011;59479;51.902;8.212;2022-10-16T12:42:19;4.75;;;1.67;;
71629;SDS011;59479;51.902;8.212;2022-10-16T12:44:50;5.40;;;2.10;;
71629;SDS011;59479;51.902;8.212;2022-10-16T12:49:56;5.15;;;1.90;;
71629;SDS011;59479;51.902;8.212;2022-10-16T12:52:27;3.30;;;1.80;;
71629;SDS011;59479;51.902;8.212;2022-10-16T12:54:58;3.45;;;2.05;;
71629;SDS011;59479;51.902;8.212;2022-10-16T13:05:24;3.55;;;1.40;;
71629;SDS011;59479;51.902;8.212;2022-10-16T13:13:24;3.10;;;1.50;;
71629;SDS011;59479;51.902;8.212;2022-10-16T13:22:30;4.18;;;1.80;;
71629;SDS011;59479;51.902;8.212;2022-10-16T13:25:30;5.03;;;1.73;;
71629;SDS011;59479;51.902;8.212;2022-10-16T13:28:02;4.65;;;2.20;;
71629;SDS011;59479;51.902;8.212;2022-10-16T13:30:39;4.18;;;2.08;;
71629;SDS011;59479;51.902;8.212;2022-10-16T13:33:07;3.55;;;2.00;;
71629;SDS011;59479;51.902;8.212;2022-10-16T13:35:48;4.28;;;1.95;;
71629;SDS011;59479;51.902;8.212;2022-10-16T13:38:16;3.63;;;1.40;;
71629;SDS011;59479;51.902;8.212;2022-10-16T13:40:51;3.53;;;1.60;;
71629;SDS011;59479;51.902;8.212;2022-10-16T13:43:19;3.88;;;1.92;;
71629;SDS011;59479;51.902;8.212;2022-10-16T13:45:58;3.55;;;1.75;;
71629;SDS011;59479;51.902;8.212;2022-10-16T13:48:28;3.38;;;1.80;;
71629;SDS011;59479;51.902;8.212;2022-10-16T13:53:30;3.70;;;1.80;;
71629;SDS011;59479;51.902;8.212;2022-10-16T13:55:59;4.03;;;1.98;;
71629;SDS011;59479;51.902;8.212;2022-10-16T13:58:25;3.13;;;1.65;;
71629;SDS011;59479;51.902;8.212;2022-10-16T14:01:04;5.60;;;1.70;;
71629;SDS011;59479;51.902;8.212;2022-10-16T14:03:31;3.50;;;1.67;;
71629;SDS011;59479;51.902;8.212;2022-10-16T14:05:59;3.37;;;1.40;;
71629;SDS011;59479;51.902;8.212;2022-10-16T14:08:26;3.83;;;1.67;;
71629;SDS011;59479;51.902;8.212;2022-10-16T14:10:54;5.70;;;1.95;;
71629;SDS011;59479;51.902;8.212;2022-10-16T14:13:26;4.35;;;1.65;;
71629;SDS011;59479;51.902;8.212;2022-10-16T14:15:55;5.45;;;1.65;;
71629;SDS011;59479;51.902;8.212;2022-10-16T14:18:24;4.40;;;1.50;;
71629;SDS011;59479;51.902;8.212;2022-10-16T14:20:51;6.78;;;1.50;;
71629;SDS011;59479;51.902;8.212;2022-10-16T14:23:23;3.43;;;1.60;;
71629;SDS011;59479;51.902;8.212;2022-10-16T14:26:05;5.63;;;1.70;;
71629;SDS011;59479;51.902;8.212;2022-10-16T14:28:31;4.18;;;1.42;;
71629;SDS011;59479;51.902;8.212;2022-10-16T14:30:58;3.53;;;1.70;;
71629;SDS011;59479;51.902;8.212;2022-10-16T14:33:33;3.70;;;1.67;;
71629;SDS011;59479;51.902;8.212;2022-10-16T14:38:27;3.23;;;1.40;;
71629;SDS011;59479;51.902;8.212;2022-10-16T14:40:54;5.35;;;1.90;;
71629;SDS011;59479;51.902;8.212;2022-10-16T14:43:24;3.08;;;1.75;;
71629;SDS011;59479;51.902;8.212;2022-10-16T14:45:56;4.60;;;1.70;;
71629;SDS011;59479;51.902;8.212;2022-10-16T14:48:22;4.53;;;1.90;;
71629;SDS011;59479;51.902;8.212;2022-10-16T14:50:48;3.47;;;1.85;;
71629;SDS011;59479;51.902;8.212;2022-10-16T14:53:14;3.20;;;1.80;;
71629;SDS011;59479;51.902;8.212;2022-10-16T14:55:40;3.65;;;1.70;;
71629;SDS011;59479;51.902;8.212;2022-10-16T14:58:07;4.03;;;1.60;;
71629;SDS011;59479;51.902;8.212;2022-10-16T15:00:39;4.35;;;2.00;;
71629;SDS011;59479;51.902;8.212;2022-10-16T15:03:05;5.00;;;1.90;;
71629;SDS011;59479;51.902;8.212;2022-10-16T15:05:30;3.40;;;1.80;;
71629;SDS011;59479;51.902;8.212;2022-10-16T15:07:57;3.85;;;1.55;;
71629;SDS011;59479;51.902;8.212;2022-10-16T15:10:23;3.83;;;2.08;;
71629;SDS011;59479;51.902;8.212;2022-10-16T15:12:52;3.75;;;1.73;;
71629;SDS011;59479;51.902;8.212;2022-10-16T15:17:51;4.00;;;1.70;;
71629;SDS011;59479;51.902;8.212;2022-10-16T15:20:22;5.10;;;2.00;;
71629;SDS011;59479;51.902;8.212;2022-10-16T15:22:51;4.45;;;1.80;;
71629;SDS011;59479;51.902;8.212;2022-10-16T15:25:27;3.50;;;1.80;;
71629;SDS011;59479;51.902;8.212;2022-10-16T15:27:54;4.00;;;1.58;;
71629;SDS011;59479;51.902;8.212;2022-10-16T15:30:20;3.70;;;1.57;;
71629;SDS011;59479;51.902;8.212;2022-10-16T15:32:45;5.13;;;2.17;;
71629;SDS011;59479;51.902;8.212;2022-10-16T15:35:10;4.78;;;1.75;;
71629;SDS011;59479;51.902;8.212;2022-10-16T15:37:36;4.32;;;1.48;;
71629;SDS011;59479;51.902;8.212;2022-10-16T15:40:01;4.57;;;2.00;;
71629;SDS011;59479;51.902;8.212;2022-10-16T15:42:27;3.30;;;1.63;;
71629;SDS011;59479;51.902;8.212;2022-10-16T15:44:52;3.23;;;1.63;;
71629;SDS011;59479;51.902;8.212;2022-10-16T15:47:17;3.93;;;1.50;;
71629;SDS011;59479;51.902;8.212;2022-10-16T15:49:42;3.30;;;1.67;;
71629;SDS011;59479;51.902;8.212;2022-10-16T15:52:08;4.25;;;1.77;;
71629;SDS011;59479;51.902;8.212;2022-10-16T15:54:33;3.50;;;1.70;;
71629;SDS011;59479;51.902;8.212;2022-10-16T15:56:58;4.30;;;2.00;;
71629;SDS011;59479;51.902;8.212;2022-10-16T15:59:24;4.40;;;2.17;;
71629;SDS011;59479;51.902;8.212;2022-10-16T16:01:49;4.10;;;1.80;;
71629;SDS011;59479;51.902;8.212;2022-10-16T16:04:14;3.97;;;1.90;;
71629;SDS011;59479;51.902;8.212;2022-10-16T16:06:41;3.65;;;2.13;;
71629;SDS011;59479;51.902;8.212;2022-10-16T16:09:10;4.38;;;2.20;;
71629;SDS011;59479;51.902;8.212;2022-10-16T16:11:36;3.30;;;1.85;;
71629;SDS011;59479;51.902;8.212;2022-10-16T16:14:03;4.13;;;2.30;;
71629;SDS011;59479;51.902;8.212;2022-10-16T16:16:32;4.28;;;2.13;;
71629;SDS011;59479;51.902;8.212;2022-10-16T16:19:02;4.97;;;2.42;;
71629;SDS011;59479;51.902;8.212;2022-10-16T16:21:28;4.35;;;2.50;;
71629;SDS011;59479;51.902;8.212;2022-10-16T16:23:54;4.00;;;2.10;;
71629;SDS011;59479;51.902;8.212;2022-10-16T16:26:29;4.33;;;2.60;;
71629;SDS011;59479;51.902;8.212;2022-10-16T16:29:01;5.15;;;2.42;;
71629;SDS011;59479;51.902;8.212;2022-10-16T16:31:27;4.90;;;2.60;;
71629;SDS011;59479;51.902;8.212;2022-10-16T16:33:53;7.72;;;2.80;;
71629;SDS011;59479;51.902;8.212;2022-10-16T16:36:19;5.75;;;2.88;;
71629;SDS011;59479;51.902;8.212;2022-10-16T16:38:45;5.88;;;2.78;;
71629;SDS011;59479;51.902;8.212;2022-10-16T16:41:15;4.63;;;2.92;;
71629;SDS011;59479;51.902;8.212;2022-10-16T16:43:45;6.15;;;3.20;;
71629;SDS011;59479;51.902;8.212;2022-10-16T16:46:12;5.93;;;3.17;;
71629;SDS011;59479;51.902;8.212;2022-10-16T16:48:38;5.03;;;3.20;;
71629;SDS011;59479;51.902;8.212;2022-10-16T16:51:04;6.33;;;3.87;;
71629;SDS011;59479;51.902;8.212;2022-10-16T16:53:35;6.80;;;3.20;;
71629;SDS011;59479;51.902;8.212;2022-10-16T16:56:04;4.85;;;2.78;;
71629;SDS011;59479;51.902;8.212;2022-10-16T16:58:30;4.68;;;2.72;;
71629;SDS011;59479;51.902;8.212;2022-10-16T17:00:57;4.82;;;2.90;;
71629;SDS011;59479;51.902;8.212;2022-10-16T17:03:26;4.27;;;2.60;;
71629;SDS011;59479;51.902;8.212;2022-10-16T17:05:58;4.47;;;2.50;;
71629;SDS011;59479;51.902;8.212;2022-10-16T17:08:25;4.82;;;2.95;;
71629;SDS011;59479;51.902;8.212;2022-10-16T17:10:51;5.07;;;2.67;;